sensor_id;sensor_type;location;lat;lon;timestamp;temperature;humidity
51733;DHT22;39139;53.144;6.244;2023-04-23T00:01:04;7.10;99.90
51733;DHT22;39139;53.144;6.244;2023-04-23T00:03:30;7.10;99.90
51733;DHT22;39139;53.144;6.244;2023-04-23T00:06:04;7.10;99.90
51733;DHT22;39139;53.144;6.244;2023-04-23T00:08:30;7.10;99.90
51733;DHT22;39139;53.144;6.244;2023-04-23T00:10:56;7.00;99.90
51733;DHT22;39139;53.144;6.244;2023-04-23T00:13:23;7.10;99.90
51733;DHT22;39139;53.144;6.244;2023-04-23T00:15:49;7.20;99.90
51733;DHT22;39139;53.144;6.244;2023-04-23T00:18:14;7.20;99.90
51733;DHT22;39139;53.144;6.244;2023-04-23T00:20:41;7.10;99.90
51733;DHT22;39139;53.144;6.244;2023-04-23T00:23:07;7.10;99.90
51733;DHT22;39139;53.144;6.244;2023-04-23T00:25:33;7.10;99.90
51733;DHT22;39139;53.144;6.244;2023-04-23T00:27:59;7.20;99.90
51733;DHT22;39139;53.144;6.244;2023-04-23T00:30:24;7.10;99.90
51733;DHT22;39139;53.144;6.244;2023-04-23T00:32:50;7.20;99.90
51733;DHT22;39139;53.144;6.244;2023-04-23T00:35:16;7.10;99.90
51733;DHT22;39139;53.144;6.244;2023-04-23T00:37:42;7.20;99.90
51733;DHT22;39139;53.144;6.244;2023-04-23T00:40:09;7.10;99.90
51733;DHT22;39139;53.144;6.244;2023-04-23T00:42:37;7.10;99.90
51733;DHT22;39139;53.144;6.244;2023-04-23T00:45:04;7.00;99.90
51733;DHT22;39139;53.144;6.244;2023-04-23T00:47:31;7.00;99.90
51733;DHT22;39139;53.144;6.244;2023-04-23T00:49:58;6.90;99.90
51733;DHT22;39139;53.144;6.244;2023-04-23T00:52:24;6.90;99.90
51733;DHT22;39139;53.144;6.244;2023-04-23T00:54:50;7.20;99.90
51733;DHT22;39139;53.144;6.244;2023-04-23T00:57:16;6.80;99.90
51733;DHT22;39139;53.144;6.244;2023-04-23T00:59:42;6.90;99.90
51733;DHT22;39139;53.144;6.244;2023-04-23T01:02:08;6.80;99.90
51733;DHT22;39139;53.144;6.244;2023-04-23T01:04:34;6.90;99.90
51733;DHT22;39139;53.144;6.244;2023-04-23T01:07:02;6.80;99.90
51733;DHT22;39139;53.144;6.244;2023-04-23T01:09:28;6.80;99.90
51733;DHT22;39139;53.144;6.244;2023-04-23T01:11:54;6.70;99.90
51733;DHT22;39139;53.144;6.244;2023-04-23T01:14:22;6.80;99.90
51733;DHT22;39139;53.144;6.244;2023-04-23T01:16:48;6.80;99.90
51733;DHT22;39139;53.144;6.244;2023-04-23T01:19:14;6.80;99.90
51733;DHT22;39139;53.144;6.244;2023-04-23T01:21:40;6.80;99.90
51733;DHT22;39139;53.144;6.244;2023-04-23T01:24:07;6.80;99.90
51733;DHT22;39139;53.144;6.244;2023-04-23T01:26:34;6.70;99.90
51733;DHT22;39139;53.144;6.244;2023-04-23T01:29:00;6.70;99.90
51733;DHT22;39139;53.144;6.244;2023-04-23T01:31:26;6.70;99.90
51733;DHT22;39139;53.144;6.244;2023-04-23T01:33:53;6.80;99.90
51733;DHT22;39139;53.144;6.244;2023-04-23T01:36:21;7.20;99.90
51733;DHT22;39139;53.144;6.244;2023-04-23T01:38:47;6.70;99.90
51733;DHT22;39139;53.144;6.244;2023-04-23T01:41:12;6.70;99.90
51733;DHT22;39139;53.144;6.244;2023-04-23T01:43:40;6.70;99.90
51733;DHT22;39139;53.144;6.244;2023-04-23T01:46:06;6.70;99.90
51733;DHT22;39139;53.144;6.244;2023-04-23T01:48:32;6.80;99.90
51733;DHT22;39139;53.144;6.244;2023-04-23T01:50:58;6.90;99.90
51733;DHT22;39139;53.144;6.244;2023-04-23T01:53:24;6.80;99.90
51733;DHT22;39139;53.144;6.244;2023-04-23T01:55:50;6.90;99.90
51733;DHT22;39139;53.144;6.244;2023-04-23T01:58:16;7.20;99.90
51733;DHT22;39139;53.144;6.244;2023-04-23T02:00:42;6.70;99.90
51733;DHT22;39139;53.144;6.244;2023-04-23T02:03:08;6.90;99.90
51733;DHT22;39139;53.144;6.244;2023-04-23T02:05:35;7.00;99.90
51733;DHT22;39139;53.144;6.244;2023-04-23T02:08:03;7.00;99.90
51733;DHT22;39139;53.144;6.244;2023-04-23T02:10:29;6.90;99.90
51733;DHT22;39139;53.144;6.244;2023-04-23T02:12:57;7.00;99.90
51733;DHT22;39139;53.144;6.244;2023-04-23T02:15:23;7.10;99.90
51733;DHT22;39139;53.144;6.244;2023-04-23T02:17:49;7.20;99.90
51733;DHT22;39139;53.144;6.244;2023-04-23T02:20:18;7.10;99.90
51733;DHT22;39139;53.144;6.244;2023-04-23T02:22:45;7.20;99.90
51733;DHT22;39139;53.144;6.244;2023-04-23T02:25:11;7.20;99.90
51733;DHT22;39139;53.144;6.244;2023-04-23T02:27:40;7.20;99.90
51733;DHT22;39139;53.144;6.244;2023-04-23T02:30:06;7.20;99.90
51733;DHT22;39139;53.144;6.244;2023-04-23T02:32:34;7.30;99.90
51733;DHT22;39139;53.144;6.244;2023-04-23T02:35:00;7.30;99.90
51733;DHT22;39139;53.144;6.244;2023-04-23T02:37:26;7.40;99.90
51733;DHT22;39139;53.144;6.244;2023-04-23T02:39:52;7.30;99.90
51733;DHT22;39139;53.144;6.244;2023-04-23T02:42:18;7.40;99.90
51733;DHT22;39139;53.144;6.244;2023-04-23T02:44:43;7.40;99.90
51733;DHT22;39139;53.144;6.244;2023-04-23T02:47:09;7.30;99.90
51733;DHT22;39139;53.144;6.244;2023-04-23T02:49:35;7.30;99.90
51733;DHT22;39139;53.144;6.244;2023-04-23T02:52:01;7.30;99.90
51733;DHT22;39139;53.144;6.244;2023-04-23T02:54:27;7.40;99.90
51733;DHT22;39139;53.144;6.244;2023-04-23T02:56:52;7.40;99.90
51733;DHT22;39139;53.144;6.244;2023-04-23T02:59:18;7.60;99.90
51733;DHT22;39139;53.144;6.244;2023-04-23T03:01:44;7.30;99.90
51733;DHT22;39139;53.144;6.244;2023-04-23T03:04:10;8.00;99.90
51733;DHT22;39139;53.144;6.244;2023-04-23T03:06:36;7.40;99.90
51733;DHT22;39139;53.144;6.244;2023-04-23T03:09:02;7.30;99.90
51733;DHT22;39139;53.144;6.244;2023-04-23T03:11:28;7.40;99.90
51733;DHT22;39139;53.144;6.244;2023-04-23T03:13:53;7.30;99.90
51733;DHT22;39139;53.144;6.244;2023-04-23T03:16:19;7.30;99.90
51733;DHT22;39139;53.144;6.244;2023-04-23T03:18:45;8.60;99.90
51733;DHT22;39139;53.144;6.244;2023-04-23T03:21:10;7.30;99.90
51733;DHT22;39139;53.144;6.244;2023-04-23T03:23:36;7.40;99.90
51733;DHT22;39139;53.144;6.244;2023-04-23T03:26:02;7.40;99.90
51733;DHT22;39139;53.144;6.244;2023-04-23T03:28:28;7.60;99.90
51733;DHT22;39139;53.144;6.244;2023-04-23T03:30:53;7.40;99.90
51733;DHT22;39139;53.144;6.244;2023-04-23T03:33:19;7.30;99.90
51733;DHT22;39139;53.144;6.244;2023-04-23T03:35:44;7.50;99.90
51733;DHT22;39139;53.144;6.244;2023-04-23T03:38:10;7.40;99.90
51733;DHT22;39139;53.144;6.244;2023-04-23T03:40:36;7.40;99.90
51733;DHT22;39139;53.144;6.244;2023-04-23T03:43:01;7.40;99.90
51733;DHT22;39139;53.144;6.244;2023-04-23T03:45:28;7.30;99.90
51733;DHT22;39139;53.144;6.244;2023-04-23T03:47:54;7.30;99.90
51733;DHT22;39139;53.144;6.244;2023-04-23T03:50:19;7.40;99.90
51733;DHT22;39139;53.144;6.244;2023-04-23T03:52:45;7.40;99.90
51733;DHT22;39139;53.144;6.244;2023-04-23T03:55:11;7.30;99.90
51733;DHT22;39139;53.144;6.244;2023-04-23T03:57:36;7.30;99.90
51733;DHT22;39139;53.144;6.244;2023-04-23T04:00:03;7.40;99.90
51733;DHT22;39139;53.144;6.244;2023-04-23T04:02:32;7.40;99.90
51733;DHT22;39139;53.144;6.244;2023-04-23T04:04:58;7.30;99.90
51733;DHT22;39139;53.144;6.244;2023-04-23T04:07:23;7.30;99.90
51733;DHT22;39139;53.144;6.244;2023-04-23T04:09:50;7.40;99.90
51733;DHT22;39139;53.144;6.244;2023-04-23T04:12:15;7.40;99.90
51733;DHT22;39139;53.144;6.244;2023-04-23T04:14:41;7.60;99.90
51733;DHT22;39139;53.144;6.244;2023-04-23T04:17:07;7.40;99.90
51733;DHT22;39139;53.144;6.244;2023-04-23T04:19:33;7.30;99.90
51733;DHT22;39139;53.144;6.244;2023-04-23T04:21:59;7.40;99.90
51733;DHT22;39139;53.144;6.244;2023-04-23T04:24:27;7.40;99.90
51733;DHT22;39139;53.144;6.244;2023-04-23T04:26:53;7.40;99.90
51733;DHT22;39139;53.144;6.244;2023-04-23T04:29:18;7.40;99.90
51733;DHT22;39139;53.144;6.244;2023-04-23T04:31:46;7.40;99.90
51733;DHT22;39139;53.144;6.244;2023-04-23T04:34:13;7.50;99.90
51733;DHT22;39139;53.144;6.244;2023-04-23T04:36:39;7.50;99.90
51733;DHT22;39139;53.144;6.244;2023-04-23T04:39:05;7.40;99.90
51733;DHT22;39139;53.144;6.244;2023-04-23T04:41:32;7.40;99.90
51733;DHT22;39139;53.144;6.244;2023-04-23T04:43:58;7.50;99.90
51733;DHT22;39139;53.144;6.244;2023-04-23T04:46:23;7.40;99.90
51733;DHT22;39139;53.144;6.244;2023-04-23T04:48:51;7.50;99.90
51733;DHT22;39139;53.144;6.244;2023-04-23T04:51:17;7.50;99.90
51733;DHT22;39139;53.144;6.244;2023-04-23T04:53:42;7.70;99.90
51733;DHT22;39139;53.144;6.244;2023-04-23T04:56:08;7.50;99.90
51733;DHT22;39139;53.144;6.244;2023-04-23T04:58:34;7.50;99.90
51733;DHT22;39139;53.144;6.244;2023-04-23T05:01:00;7.50;99.90
51733;DHT22;39139;53.144;6.244;2023-04-23T05:03:26;7.50;99.90
51733;DHT22;39139;53.144;6.244;2023-04-23T05:05:52;7.60;99.90
51733;DHT22;39139;53.144;6.244;2023-04-23T05:08:23;7.60;99.90
51733;DHT22;39139;53.144;6.244;2023-04-23T05:10:48;7.60;99.90
51733;DHT22;39139;53.144;6.244;2023-04-23T05:13:18;7.60;99.90
51733;DHT22;39139;53.144;6.244;2023-04-23T05:15:45;7.20;99.90
51733;DHT22;39139;53.144;6.244;2023-04-23T05:18:11;7.60;99.90
51733;DHT22;39139;53.144;6.244;2023-04-23T05:20:36;7.60;99.90
51733;DHT22;39139;53.144;6.244;2023-04-23T05:23:03;7.70;99.90
51733;DHT22;39139;53.144;6.244;2023-04-23T05:25:29;7.70;99.90
51733;DHT22;39139;53.144;6.244;2023-04-23T05:27:55;7.70;99.90
51733;DHT22;39139;53.144;6.244;2023-04-23T05:30:21;7.50;99.90
51733;DHT22;39139;53.144;6.244;2023-04-23T05:32:46;7.70;99.90
51733;DHT22;39139;53.144;6.244;2023-04-23T05:35:12;7.80;99.90
51733;DHT22;39139;53.144;6.244;2023-04-23T05:37:38;7.70;99.90
51733;DHT22;39139;53.144;6.244;2023-04-23T05:40:04;7.70;99.90
51733;DHT22;39139;53.144;6.244;2023-04-23T05:42:33;7.70;99.90
51733;DHT22;39139;53.144;6.244;2023-04-23T05:44:58;7.80;99.90
51733;DHT22;39139;53.144;6.244;2023-04-23T05:47:24;7.80;99.90
51733;DHT22;39139;53.144;6.244;2023-04-23T05:49:49;7.80;99.90
51733;DHT22;39139;53.144;6.244;2023-04-23T05:52:15;8.00;99.90
51733;DHT22;39139;53.144;6.244;2023-04-23T05:54:41;7.80;99.90
51733;DHT22;39139;53.144;6.244;2023-04-23T05:57:07;7.80;99.90
51733;DHT22;39139;53.144;6.244;2023-04-23T05:59:32;7.90;99.90
51733;DHT22;39139;53.144;6.244;2023-04-23T06:01:58;7.90;99.90
51733;DHT22;39139;53.144;6.244;2023-04-23T06:04:24;8.00;99.90
51733;DHT22;39139;53.144;6.244;2023-04-23T06:06:50;8.00;99.90
51733;DHT22;39139;53.144;6.244;2023-04-23T06:09:15;8.10;99.90
51733;DHT22;39139;53.144;6.244;2023-04-23T06:11:42;8.10;99.90
51733;DHT22;39139;53.144;6.244;2023-04-23T06:14:09;8.10;99.90
51733;DHT22;39139;53.144;6.244;2023-04-23T06:16:35;8.20;99.90
51733;DHT22;39139;53.144;6.244;2023-04-23T06:19:01;8.30;99.90
51733;DHT22;39139;53.144;6.244;2023-04-23T06:21:27;8.30;99.90
51733;DHT22;39139;53.144;6.244;2023-04-23T06:23:53;8.40;99.90
51733;DHT22;39139;53.144;6.244;2023-04-23T06:26:19;8.40;99.90
51733;DHT22;39139;53.144;6.244;2023-04-23T06:28:45;8.50;99.90
51733;DHT22;39139;53.144;6.244;2023-04-23T06:31:12;8.50;99.90
51733;DHT22;39139;53.144;6.244;2023-04-23T06:33:37;8.60;99.90
51733;DHT22;39139;53.144;6.244;2023-04-23T06:36:04;8.70;99.90
51733;DHT22;39139;53.144;6.244;2023-04-23T06:38:30;8.90;99.90
51733;DHT22;39139;53.144;6.244;2023-04-23T06:40:56;9.20;99.90
51733;DHT22;39139;53.144;6.244;2023-04-23T06:43:22;9.20;99.90
51733;DHT22;39139;53.144;6.244;2023-04-23T06:45:47;9.20;99.90
51733;DHT22;39139;53.144;6.244;2023-04-23T06:48:14;9.30;99.90
51733;DHT22;39139;53.144;6.244;2023-04-23T06:50:40;9.50;99.90
51733;DHT22;39139;53.144;6.244;2023-04-23T06:53:06;9.80;99.90
51733;DHT22;39139;53.144;6.244;2023-04-23T06:55:31;10.00;99.90
51733;DHT22;39139;53.144;6.244;2023-04-23T06:57:57;10.20;99.90
51733;DHT22;39139;53.144;6.244;2023-04-23T07:00:23;10.30;99.90
51733;DHT22;39139;53.144;6.244;2023-04-23T07:02:49;10.30;99.90
51733;DHT22;39139;53.144;6.244;2023-04-23T07:05:16;10.30;99.90
51733;DHT22;39139;53.144;6.244;2023-04-23T07:07:42;10.30;99.90
51733;DHT22;39139;53.144;6.244;2023-04-23T07:10:09;10.30;99.90
51733;DHT22;39139;53.144;6.244;2023-04-23T07:12:37;10.30;99.90
51733;DHT22;39139;53.144;6.244;2023-04-23T07:15:03;10.30;99.90
51733;DHT22;39139;53.144;6.244;2023-04-23T07:17:29;10.30;99.90
51733;DHT22;39139;53.144;6.244;2023-04-23T07:19:55;10.40;99.90
51733;DHT22;39139;53.144;6.244;2023-04-23T07:22:21;10.50;99.90
51733;DHT22;39139;53.144;6.244;2023-04-23T07:24:48;10.80;99.90
51733;DHT22;39139;53.144;6.244;2023-04-23T07:27:13;11.00;99.90
51733;DHT22;39139;53.144;6.244;2023-04-23T07:29:39;11.10;99.90
51733;DHT22;39139;53.144;6.244;2023-04-23T07:32:04;11.10;99.90
51733;DHT22;39139;53.144;6.244;2023-04-23T07:34:30;11.20;99.90
51733;DHT22;39139;53.144;6.244;2023-04-23T07:36:56;11.40;99.90
51733;DHT22;39139;53.144;6.244;2023-04-23T07:39:22;11.60;99.90
51733;DHT22;39139;53.144;6.244;2023-04-23T07:41:47;11.70;99.90
51733;DHT22;39139;53.144;6.244;2023-04-23T07:44:13;11.90;99.90
51733;DHT22;39139;53.144;6.244;2023-04-23T07:46:39;12.10;99.90
51733;DHT22;39139;53.144;6.244;2023-04-23T07:49:04;12.30;99.90
51733;DHT22;39139;53.144;6.244;2023-04-23T07:51:31;12.50;99.90
51733;DHT22;39139;53.144;6.244;2023-04-23T07:53:57;12.60;99.90
51733;DHT22;39139;53.144;6.244;2023-04-23T07:56:23;12.80;99.90
51733;DHT22;39139;53.144;6.244;2023-04-23T07:58:50;12.80;99.90
51733;DHT22;39139;53.144;6.244;2023-04-23T08:01:16;13.20;99.90
51733;DHT22;39139;53.144;6.244;2023-04-23T08:03:41;13.10;99.90
51733;DHT22;39139;53.144;6.244;2023-04-23T08:06:09;13.10;99.90
51733;DHT22;39139;53.144;6.244;2023-04-23T08:08:36;13.40;99.90
51733;DHT22;39139;53.144;6.244;2023-04-23T08:11:02;13.50;99.90
51733;DHT22;39139;53.144;6.244;2023-04-23T08:13:28;13.60;99.90
51733;DHT22;39139;53.144;6.244;2023-04-23T08:15:53;13.60;99.90
51733;DHT22;39139;53.144;6.244;2023-04-23T08:18:19;14.00;99.90
51733;DHT22;39139;53.144;6.244;2023-04-23T08:20:45;13.70;99.90
51733;DHT22;39139;53.144;6.244;2023-04-23T08:23:10;14.00;99.90
51733;DHT22;39139;53.144;6.244;2023-04-23T08:25:36;14.20;99.90
51733;DHT22;39139;53.144;6.244;2023-04-23T08:28:01;14.40;99.90
51733;DHT22;39139;53.144;6.244;2023-04-23T08:30:28;14.70;99.90
51733;DHT22;39139;53.144;6.244;2023-04-23T08:32:53;15.10;99.90
51733;DHT22;39139;53.144;6.244;2023-04-23T08:35:19;15.30;99.90
51733;DHT22;39139;53.144;6.244;2023-04-23T08:37:45;15.70;99.90
51733;DHT22;39139;53.144;6.244;2023-04-23T08:40:11;16.10;99.90
51733;DHT22;39139;53.144;6.244;2023-04-23T08:45:09;16.50;99.90
51733;DHT22;39139;53.144;6.244;2023-04-23T08:47:41;16.70;99.90
51733;DHT22;39139;53.144;6.244;2023-04-23T08:50:17;17.00;99.90
51733;DHT22;39139;53.144;6.244;2023-04-23T08:52:55;16.90;99.90
51733;DHT22;39139;53.144;6.244;2023-04-23T08:55:21;17.40;99.90
51733;DHT22;39139;53.144;6.244;2023-04-23T08:57:48;17.20;99.90
51733;DHT22;39139;53.144;6.244;2023-04-23T09:00:16;17.20;99.90
51733;DHT22;39139;53.144;6.244;2023-04-23T09:02:45;17.30;99.90
51733;DHT22;39139;53.144;6.244;2023-04-23T09:05:11;17.60;99.90
51733;DHT22;39139;53.144;6.244;2023-04-23T09:07:38;17.50;99.90
51733;DHT22;39139;53.144;6.244;2023-04-23T09:10:09;17.50;99.90
51733;DHT22;39139;53.144;6.244;2023-04-23T09:12:39;17.00;99.90
51733;DHT22;39139;53.144;6.244;2023-04-23T09:15:06;17.10;99.90
51733;DHT22;39139;53.144;6.244;2023-04-23T09:17:35;17.10;99.90
51733;DHT22;39139;53.144;6.244;2023-04-23T09:20:02;16.80;99.90
51733;DHT22;39139;53.144;6.244;2023-04-23T09:22:48;16.70;99.90
51733;DHT22;39139;53.144;6.244;2023-04-23T09:25:15;16.70;99.90
51733;DHT22;39139;53.144;6.244;2023-04-23T09:27:42;16.30;99.90
51733;DHT22;39139;53.144;6.244;2023-04-23T09:30:09;16.30;99.90
51733;DHT22;39139;53.144;6.244;2023-04-23T09:32:37;16.30;99.90
51733;DHT22;39139;53.144;6.244;2023-04-23T09:35:05;16.50;99.90
51733;DHT22;39139;53.144;6.244;2023-04-23T09:37:31;16.50;99.90
51733;DHT22;39139;53.144;6.244;2023-04-23T09:40:05;16.60;99.90
51733;DHT22;39139;53.144;6.244;2023-04-23T09:42:34;17.10;99.90
51733;DHT22;39139;53.144;6.244;2023-04-23T09:47:50;17.20;99.90
51733;DHT22;39139;53.144;6.244;2023-04-23T09:50:17;17.50;99.90
51733;DHT22;39139;53.144;6.244;2023-04-23T09:52:43;17.40;99.90
51733;DHT22;39139;53.144;6.244;2023-04-23T09:55:09;17.30;99.90
51733;DHT22;39139;53.144;6.244;2023-04-23T09:57:35;17.20;99.90
51733;DHT22;39139;53.144;6.244;2023-04-23T10:00:18;17.30;99.90
51733;DHT22;39139;53.144;6.244;2023-04-23T10:02:46;17.40;99.90
51733;DHT22;39139;53.144;6.244;2023-04-23T10:05:17;17.50;99.90
51733;DHT22;39139;53.144;6.244;2023-04-23T10:07:44;17.60;99.90
51733;DHT22;39139;53.144;6.244;2023-04-23T10:10:11;17.90;99.90
51733;DHT22;39139;53.144;6.244;2023-04-23T10:12:37;18.10;99.90
51733;DHT22;39139;53.144;6.244;2023-04-23T10:15:06;18.10;99.90
51733;DHT22;39139;53.144;6.244;2023-04-23T10:17:34;18.40;99.90
51733;DHT22;39139;53.144;6.244;2023-04-23T10:20:00;18.50;99.90
51733;DHT22;39139;53.144;6.244;2023-04-23T10:22:28;18.50;99.90
51733;DHT22;39139;53.144;6.244;2023-04-23T10:24:56;18.70;99.90
51733;DHT22;39139;53.144;6.244;2023-04-23T10:27:26;18.70;99.90
51733;DHT22;39139;53.144;6.244;2023-04-23T10:29:53;18.80;99.90
51733;DHT22;39139;53.144;6.244;2023-04-23T10:32:20;19.00;99.90
51733;DHT22;39139;53.144;6.244;2023-04-23T10:34:47;19.20;99.90
51733;DHT22;39139;53.144;6.244;2023-04-23T10:37:13;19.10;99.90
51733;DHT22;39139;53.144;6.244;2023-04-23T10:39:42;18.80;99.90
51733;DHT22;39139;53.144;6.244;2023-04-23T10:42:09;18.80;99.90
51733;DHT22;39139;53.144;6.244;2023-04-23T10:44:38;18.70;99.90
51733;DHT22;39139;53.144;6.244;2023-04-23T10:47:04;18.80;99.90
51733;DHT22;39139;53.144;6.244;2023-04-23T10:49:32;18.70;99.90
51733;DHT22;39139;53.144;6.244;2023-04-23T10:52:03;18.50;99.90
51733;DHT22;39139;53.144;6.244;2023-04-23T10:54:31;18.30;99.90
51733;DHT22;39139;53.144;6.244;2023-04-23T10:57:02;17.90;99.90
51733;DHT22;39139;53.144;6.244;2023-04-23T10:59:33;17.90;99.90
51733;DHT22;39139;53.144;6.244;2023-04-23T11:02:08;18.10;99.90
51733;DHT22;39139;53.144;6.244;2023-04-23T11:04:36;18.40;99.90
51733;DHT22;39139;53.144;6.244;2023-04-23T11:07:10;18.50;99.90
51733;DHT22;39139;53.144;6.244;2023-04-23T11:09:39;18.30;99.90
51733;DHT22;39139;53.144;6.244;2023-04-23T11:12:06;18.40;99.90
51733;DHT22;39139;53.144;6.244;2023-04-23T11:14:47;18.70;99.90
51733;DHT22;39139;53.144;6.244;2023-04-23T11:17:15;18.50;99.90
51733;DHT22;39139;53.144;6.244;2023-04-23T11:20:11;18.20;99.90
51733;DHT22;39139;53.144;6.244;2023-04-23T11:22:48;18.00;99.90
51733;DHT22;39139;53.144;6.244;2023-04-23T11:25:18;18.00;99.90
51733;DHT22;39139;53.144;6.244;2023-04-23T11:27:45;18.00;99.90
51733;DHT22;39139;53.144;6.244;2023-04-23T11:30:18;18.20;99.90
51733;DHT22;39139;53.144;6.244;2023-04-23T11:32:46;18.40;99.90
51733;DHT22;39139;53.144;6.244;2023-04-23T11:35:14;18.50;99.90
51733;DHT22;39139;53.144;6.244;2023-04-23T11:37:41;18.40;99.90
51733;DHT22;39139;53.144;6.244;2023-04-23T11:40:09;18.60;99.90
51733;DHT22;39139;53.144;6.244;2023-04-23T11:42:49;18.90;99.90
51733;DHT22;39139;53.144;6.244;2023-04-23T11:45:25;19.20;99.90
51733;DHT22;39139;53.144;6.244;2023-04-23T11:47:53;18.70;99.90
51733;DHT22;39139;53.144;6.244;2023-04-23T11:50:27;18.90;99.90
51733;DHT22;39139;53.144;6.244;2023-04-23T11:52:54;19.10;99.90
51733;DHT22;39139;53.144;6.244;2023-04-23T11:55:21;19.30;99.90
51733;DHT22;39139;53.144;6.244;2023-04-23T11:57:48;19.40;99.90
51733;DHT22;39139;53.144;6.244;2023-04-23T12:00:20;19.60;99.90
51733;DHT22;39139;53.144;6.244;2023-04-23T12:02:54;19.80;99.90
51733;DHT22;39139;53.144;6.244;2023-04-23T12:05:22;20.00;99.90
51733;DHT22;39139;53.144;6.244;2023-04-23T12:07:51;20.20;99.90
51733;DHT22;39139;53.144;6.244;2023-04-23T12:10:18;20.00;99.90
51733;DHT22;39139;53.144;6.244;2023-04-23T12:12:48;20.00;99.90
51733;DHT22;39139;53.144;6.244;2023-04-23T12:15:14;19.70;99.90
51733;DHT22;39139;53.144;6.244;2023-04-23T12:17:40;19.70;99.90
51733;DHT22;39139;53.144;6.244;2023-04-23T12:20:09;19.70;99.90
51733;DHT22;39139;53.144;6.244;2023-04-23T12:22:37;19.60;99.90
51733;DHT22;39139;53.144;6.244;2023-04-23T12:25:05;19.60;99.90
51733;DHT22;39139;53.144;6.244;2023-04-23T12:27:38;19.50;99.90
51733;DHT22;39139;53.144;6.244;2023-04-23T12:30:06;19.50;99.90
51733;DHT22;39139;53.144;6.244;2023-04-23T12:32:33;19.50;99.90
51733;DHT22;39139;53.144;6.244;2023-04-23T12:34:58;19.30;99.90
51733;DHT22;39139;53.144;6.244;2023-04-23T12:37:27;19.40;99.90
51733;DHT22;39139;53.144;6.244;2023-04-23T12:39:53;19.90;99.90
51733;DHT22;39139;53.144;6.244;2023-04-23T12:42:21;19.30;99.90
51733;DHT22;39139;53.144;6.244;2023-04-23T12:44:47;19.10;99.90
51733;DHT22;39139;53.144;6.244;2023-04-23T12:47:12;19.20;99.90
51733;DHT22;39139;53.144;6.244;2023-04-23T12:49:43;19.00;99.90
51733;DHT22;39139;53.144;6.244;2023-04-23T12:52:09;19.00;99.90
51733;DHT22;39139;53.144;6.244;2023-04-23T12:54:37;19.20;99.90
51733;DHT22;39139;53.144;6.244;2023-04-23T12:57:04;19.20;99.90
51733;DHT22;39139;53.144;6.244;2023-04-23T12:59:31;19.20;99.90
51733;DHT22;39139;53.144;6.244;2023-04-23T13:01:58;19.30;99.90
51733;DHT22;39139;53.144;6.244;2023-04-23T13:04:33;19.20;99.90
51733;DHT22;39139;53.144;6.244;2023-04-23T13:07:00;19.10;99.90
51733;DHT22;39139;53.144;6.244;2023-04-23T13:09:27;19.30;99.90
51733;DHT22;39139;53.144;6.244;2023-04-23T13:11:54;19.10;99.90
51733;DHT22;39139;53.144;6.244;2023-04-23T13:14:20;19.10;99.90
51733;DHT22;39139;53.144;6.244;2023-04-23T13:16:46;19.00;99.90
51733;DHT22;39139;53.144;6.244;2023-04-23T13:19:12;19.00;99.90
51733;DHT22;39139;53.144;6.244;2023-04-23T13:21:38;19.00;99.90
51733;DHT22;39139;53.144;6.244;2023-04-23T13:24:04;19.00;99.90
51733;DHT22;39139;53.144;6.244;2023-04-23T13:26:30;19.10;99.90
51733;DHT22;39139;53.144;6.244;2023-04-23T13:29:00;19.10;99.90
51733;DHT22;39139;53.144;6.244;2023-04-23T13:31:26;19.10;99.90
51733;DHT22;39139;53.144;6.244;2023-04-23T13:33:51;19.10;99.90
51733;DHT22;39139;53.144;6.244;2023-04-23T13:36:18;19.20;99.90
51733;DHT22;39139;53.144;6.244;2023-04-23T13:38:43;19.20;99.90
51733;DHT22;39139;53.144;6.244;2023-04-23T13:41:09;19.10;99.90
51733;DHT22;39139;53.144;6.244;2023-04-23T13:43:34;19.10;99.90
51733;DHT22;39139;53.144;6.244;2023-04-23T13:46:00;19.10;99.90
51733;DHT22;39139;53.144;6.244;2023-04-23T13:48:26;19.10;99.90
51733;DHT22;39139;53.144;6.244;2023-04-23T13:50:56;19.10;99.90
51733;DHT22;39139;53.144;6.244;2023-04-23T13:53:22;19.10;99.90
51733;DHT22;39139;53.144;6.244;2023-04-23T13:55:48;19.10;99.90
51733;DHT22;39139;53.144;6.244;2023-04-23T13:58:14;19.10;99.90
51733;DHT22;39139;53.144;6.244;2023-04-23T14:00:41;19.20;99.90
51733;DHT22;39139;53.144;6.244;2023-04-23T14:03:07;19.20;99.90
51733;DHT22;39139;53.144;6.244;2023-04-23T14:05:33;19.10;99.90
51733;DHT22;39139;53.144;6.244;2023-04-23T14:07:59;19.20;99.90
51733;DHT22;39139;53.144;6.244;2023-04-23T14:10:25;19.30;99.90
51733;DHT22;39139;53.144;6.244;2023-04-23T14:12:50;19.30;99.90
51733;DHT22;39139;53.144;6.244;2023-04-23T14:15:17;19.20;99.90
51733;DHT22;39139;53.144;6.244;2023-04-23T14:17:43;19.20;99.90
51733;DHT22;39139;53.144;6.244;2023-04-23T14:20:10;19.10;99.90
51733;DHT22;39139;53.144;6.244;2023-04-23T14:22:37;19.20;99.90
51733;DHT22;39139;53.144;6.244;2023-04-23T14:25:45;19.20;99.90
51733;DHT22;39139;53.144;6.244;2023-04-23T14:28:28;19.20;99.90
51733;DHT22;39139;53.144;6.244;2023-04-23T14:30:59;19.30;99.90
51733;DHT22;39139;53.144;6.244;2023-04-23T14:33:25;19.30;99.90
51733;DHT22;39139;53.144;6.244;2023-04-23T14:35:51;19.20;99.90
51733;DHT22;39139;53.144;6.244;2023-04-23T14:38:17;19.10;99.90
51733;DHT22;39139;53.144;6.244;2023-04-23T14:40:42;19.00;99.90
51733;DHT22;39139;53.144;6.244;2023-04-23T14:43:08;19.00;99.90
51733;DHT22;39139;53.144;6.244;2023-04-23T14:45:34;19.00;99.90
51733;DHT22;39139;53.144;6.244;2023-04-23T14:47:59;19.00;99.90
51733;DHT22;39139;53.144;6.244;2023-04-23T14:50:25;19.10;99.90
51733;DHT22;39139;53.144;6.244;2023-04-23T14:52:53;19.10;99.90
51733;DHT22;39139;53.144;6.244;2023-04-23T14:55:20;19.10;99.90
51733;DHT22;39139;53.144;6.244;2023-04-23T14:57:46;19.20;99.90
51733;DHT22;39139;53.144;6.244;2023-04-23T15:00:12;19.10;99.90
51733;DHT22;39139;53.144;6.244;2023-04-23T15:02:39;19.10;99.90
51733;DHT22;39139;53.144;6.244;2023-04-23T15:05:08;19.00;99.90
51733;DHT22;39139;53.144;6.244;2023-04-23T15:07:35;18.80;99.90
51733;DHT22;39139;53.144;6.244;2023-04-23T15:10:01;18.70;99.90
51733;DHT22;39139;53.144;6.244;2023-04-23T15:15:21;18.50;99.90
51733;DHT22;39139;53.144;6.244;2023-04-23T15:17:50;18.40;99.90
51733;DHT22;39139;53.144;6.244;2023-04-23T15:20:16;18.30;99.90
51733;DHT22;39139;53.144;6.244;2023-04-23T15:22:43;18.20;99.90
51733;DHT22;39139;53.144;6.244;2023-04-23T15:25:09;18.20;99.90
51733;DHT22;39139;53.144;6.244;2023-04-23T15:27:35;18.10;99.90
51733;DHT22;39139;53.144;6.244;2023-04-23T15:30:01;18.10;99.90
51733;DHT22;39139;53.144;6.244;2023-04-23T15:32:26;18.10;99.90
51733;DHT22;39139;53.144;6.244;2023-04-23T15:34:53;18.10;99.90
51733;DHT22;39139;53.144;6.244;2023-04-23T15:37:18;18.00;99.90
51733;DHT22;39139;53.144;6.244;2023-04-23T15:39:45;18.10;99.90
51733;DHT22;39139;53.144;6.244;2023-04-23T15:42:12;18.00;99.90
51733;DHT22;39139;53.144;6.244;2023-04-23T15:44:39;18.00;99.90